Time;durP1;ratioP1;P1;durP2;ratioP2;P2;SDS_P1;SDS_P2;PMS_P1;PMS_P2;Temp;Humidity;BMP_temperature;BMP_pressure;BME280_temperature;BME280_humidity;BME280_pressure;Samples;Min_cycle;Max_cycle;Signal;HPM_P1;HPM_P2
2022/05/02 00:02:19;;;;;;;7.03;5.33;;;8.90;99.90;;;;;;4962736;28;20238;-83
2022/05/02 00:04:46;;;;;;;9.17;5.30;;;8.70;99.90;;;;;;4962002;29;20245;-82
2022/05/02 00:07:13;;;;;;;9.90;5.80;;;8.70;99.90;;;;;;4962697;29;20309;-83
2022/05/02 00:09:40;;;;;;;8.13;6.17;;;8.70;99.90;;;;;;4962161;29;20226;-83
2022/05/02 00:12:08;;;;;;;7.93;5.40;;;8.70;99.90;;;;;;4962201;29;20289;-83
2022/05/02 00:14:36;;;;;;;7.83;5.50;;;8.80;99.90;;;;;;4961523;29;20650;-83
2022/05/02 00:17:03;;;;;;;7.40;6.07;;;8.60;99.90;;;;;;4962326;29;20207;-83
2022/05/02 00:19:30;;;;;;;8.43;5.70;;;8.60;99.90;;;;;;4961530;29;20681;-82
2022/05/02 00:21:57;;;;;;;8.63;5.37;;;8.60;99.90;;;;;;4961695;28;20214;-82
2022/05/02 00:24:24;;;;;;;7.57;5.50;;;8.70;99.90;;;;;;4961740;29;20230;-84
2022/05/02 00:26:50;;;;;;;13.23;5.90;;;8.50;99.90;;;;;;4962117;29;20321;-83
2022/05/02 00:29:17;;;;;;;8.20;5.67;;;8.50;99.90;;;;;;4961695;28;20226;-83
2022/05/02 00:31:46;;;;;;;7.73;5.47;;;8.60;99.90;;;;;;4961490;28;20285;-83
2022/05/02 00:34:13;;;;;;;7.93;6.03;;;8.60;99.90;;;;;;4961448;28;20197;-83
2022/05/02 00:36:40;;;;;;;7.77;5.67;;;8.50;99.90;;;;;;4961419;29;20208;-83
2022/05/02 00:39:07;;;;;;;9.70;5.80;;;8.70;99.90;;;;;;4960941;29;20241;-84
2022/05/02 00:41:34;;;;;;;7.63;5.90;;;8.50;99.90;;;;;;4960481;28;20266;-83
2022/05/02 00:44:01;;;;;;;8.60;5.70;;;8.70;99.90;;;;;;4960874;28;20666;-83
2022/05/02 00:46:28;;;;;;;7.83;5.70;;;8.70;99.90;;;;;;4960369;28;20225;-83
2022/05/02 00:48:56;;;;;;;9.47;6.17;;;8.70;99.90;;;;;;4960861;29;20655;-83
2022/05/02 00:51:23;;;;;;;9.20;5.87;;;8.80;99.90;;;;;;4961121;29;20305;-83
2022/05/02 00:53:51;;;;;;;9.33;5.67;;;9.00;99.90;;;;;;4961013;28;20217;-83
2022/05/02 00:56:20;;;;;;;11.10;5.80;;;8.70;99.90;;;;;;4960677;28;20237;-83
2022/05/02 00:58:49;;;;;;;11.90;6.20;;;8.90;99.90;;;;;;4961298;29;20214;-83
2022/05/02 01:01:16;;;;;;;8.93;5.53;;;9.00;99.90;;;;;;4960838;28;20289;-83
2022/05/02 01:03:44;;;;;;;8.40;5.90;;;8.90;99.90;;;;;;4960637;29;20229;-83
2022/05/02 01:08:57;;;;;;;9.40;5.17;;;9.10;99.90;;;;;;4960555;29;20209;-83
2022/05/02 01:11:24;;;;;;;8.53;5.27;;;9.10;99.90;;;;;;4962192;28;20660;-83
2022/05/02 01:13:52;;;;;;;8.10;5.63;;;9.20;99.90;;;;;;4965193;29;20204;-83
2022/05/02 01:16:21;;;;;;;7.00;5.40;;;9.10;99.90;;;;;;4963828;28;20308;-83
2022/05/02 01:18:50;;;;;;;8.03;5.83;;;9.00;99.90;;;;;;4963819;28;20213;-83
2022/05/02 01:21:20;;;;;;;9.13;5.60;;;9.00;99.90;;;;;;4963434;29;20270;-83
2022/05/02 01:23:49;;;;;;;6.73;5.60;;;9.00;99.90;;;;;;4963840;29;20780;-84
2022/05/02 01:26:16;;;;;;;6.63;5.47;;;8.90;99.90;;;;;;4963400;28;20226;-83
2022/05/02 01:28:45;;;;;;;6.77;5.27;;;8.80;99.90;;;;;;4962725;29;20266;-84
2022/05/02 01:31:12;;;;;;;8.13;4.70;;;8.60;99.90;;;;;;4961865;28;20211;-83
2022/05/02 01:33:40;;;;;;;7.17;5.10;;;8.80;99.90;;;;;;4961798;28;20298;-85
2022/05/02 01:36:07;;;;;;;6.77;4.90;;;8.70;99.90;;;;;;4960377;29;20668;-84
2022/05/02 01:38:35;;;;;;;9.57;5.00;;;8.70;99.90;;;;;;4960024;28;20213;-84
2022/05/02 01:41:03;;;;;;;7.47;5.50;;;8.50;99.90;;;;;;4960280;28;20206;-83
2022/05/02 01:43:31;;;;;;;7.90;5.17;;;8.30;99.90;;;;;;4960169;28;20218;-83
2022/05/02 01:45:58;;;;;;;9.47;5.97;;;8.20;99.90;;;;;;4958094;29;20230;-83
2022/05/02 01:48:25;;;;;;;8.47;6.20;;;8.30;99.90;;;;;;4958289;28;20210;-83
2022/05/02 01:50:52;;;;;;;12.00;7.03;;;8.30;99.90;;;;;;4959340;28;20245;-83
2022/05/02 01:53:19;;;;;;;10.00;6.33;;;8.30;99.90;;;;;;4964861;28;20305;-83
2022/05/02 01:55:47;;;;;;;9.10;6.50;;;8.20;99.90;;;;;;4964949;28;20329;-83
2022/05/02 01:58:14;;;;;;;11.63;6.67;;;8.30;99.90;;;;;;4965908;28;20210;-82
2022/05/02 02:00:41;;;;;;;12.03;7.53;;;8.10;99.90;;;;;;4964935;28;20290;-85
2022/05/02 02:03:08;;;;;;;9.57;6.43;;;8.30;99.90;;;;;;4965365;28;20206;-83
2022/05/02 02:05:49;;;;;;;10.47;7.03;;;8.20;99.90;;;;;;4965105;29;20307;-83
2022/05/02 02:08:16;;;;;;;11.43;7.20;;;8.20;99.90;;;;;;4964763;29;20217;-83
2022/05/02 02:10:44;;;;;;;9.27;6.40;;;8.00;99.90;;;;;;4965297;29;20206;-83
2022/05/02 02:13:12;;;;;;;10.97;6.67;;;8.00;99.90;;;;;;4964060;28;20214;-83
2022/05/02 02:15:40;;;;;;;8.93;6.87;;;7.80;99.90;;;;;;4966132;28;20257;-84
2022/05/02 02:18:07;;;;;;;8.57;6.57;;;7.70;99.90;;;;;;4965246;28;20210;-83
2022/05/02 02:20:35;;;;;;;8.30;6.67;;;7.90;99.90;;;;;;4964974;28;20206;-83
2022/05/02 02:23:03;;;;;;;8.40;6.20;;;8.00;99.90;;;;;;4964917;28;20289;-83
2022/05/02 02:25:31;;;;;;;8.60;6.50;;;8.10;99.90;;;;;;4965704;28;20286;-84
2022/05/02 02:27:59;;;;;;;10.80;7.17;;;8.10;99.90;;;;;;4965020;28;20222;-83
2022/05/02 02:30:27;;;;;;;9.53;6.33;;;8.10;99.90;;;;;;4965043;29;20695;-83
2022/05/02 02:32:54;;;;;;;9.90;6.73;;;8.20;99.90;;;;;;4964825;29;20226;-83
2022/05/02 02:35:21;;;;;;;8.93;6.57;;;8.20;99.90;;;;;;4964848;28;20231;-85
2022/05/02 02:37:48;;;;;;;11.83;6.80;;;8.20;99.90;;;;;;4964153;28;20285;-83
2022/05/02 02:40:15;;;;;;;9.40;7.30;;;8.10;99.90;;;;;;4964291;28;20217;-84
2022/05/02 02:42:42;;;;;;;9.57;7.20;;;8.20;99.90;;;;;;4965157;28;20286;-83
2022/05/02 02:45:10;;;;;;;10.40;7.30;;;8.30;99.90;;;;;;4962916;29;20230;-82
2022/05/02 02:47:39;;;;;;;12.37;7.67;;;8.20;99.90;;;;;;4964065;29;20783;-83
2022/05/02 02:50:06;;;;;;;9.73;7.00;;;8.20;99.90;;;;;;4961201;28;20202;-84
2022/05/02 02:52:33;;;;;;;8.77;6.63;;;8.30;99.90;;;;;;4961227;28;20302;-83
2022/05/02 02:55:00;;;;;;;12.13;8.00;;;8.30;99.90;;;;;;4961786;29;20250;-83
2022/05/02 02:57:27;;;;;;;11.47;7.07;;;8.30;99.90;;;;;;4961336;28;20665;-82
2022/05/02 02:59:54;;;;;;;8.77;6.63;;;8.20;99.90;;;;;;4962193;28;20274;-83
2022/05/02 03:02:21;;;;;;;10.17;7.00;;;8.20;99.90;;;;;;4961786;29;20229;-83
2022/05/02 03:07:34;;;;;;;10.63;7.30;;;8.30;99.90;;;;;;4961195;29;20229;-83
2022/05/02 03:10:01;;;;;;;11.47;6.90;;;8.20;99.90;;;;;;4961481;29;20285;-83
2022/05/02 03:12:28;;;;;;;11.40;6.80;;;8.20;99.90;;;;;;4961708;28;20270;-83
2022/05/02 03:14:55;;;;;;;10.17;7.07;;;8.40;99.90;;;;;;4962646;28;20226;-83
2022/05/02 03:17:22;;;;;;;8.73;6.73;;;8.30;99.90;;;;;;4962023;29;20222;-82
2022/05/02 03:19:50;;;;;;;9.53;7.40;;;8.10;99.90;;;;;;4960667;29;20241;-84
2022/05/02 03:22:17;;;;;;;9.67;7.13;;;8.10;99.90;;;;;;4961899;28;20299;-83
2022/05/02 03:24:44;;;;;;;8.33;6.80;;;8.20;99.90;;;;;;4962134;29;20290;-83
2022/05/02 03:27:11;;;;;;;9.53;7.10;;;8.20;99.90;;;;;;4962494;29;20230;-83
2022/05/02 03:29:37;;;;;;;10.57;7.13;;;8.20;99.90;;;;;;4961371;28;20305;-83
2022/05/02 03:32:05;;;;;;;9.70;6.43;;;8.10;99.90;;;;;;4962042;29;20273;-83
2022/05/02 03:34:32;;;;;;;9.00;6.70;;;8.10;99.90;;;;;;4963507;28;20343;-83
2022/05/02 03:37:00;;;;;;;10.97;6.80;;;8.00;99.90;;;;;;4962536;29;20285;-83
2022/05/02 03:39:27;;;;;;;9.53;6.70;;;8.10;99.90;;;;;;4962204;29;20348;-83
2022/05/02 03:41:54;;;;;;;8.80;6.80;;;8.10;99.90;;;;;;4962456;28;20274;-83
2022/05/02 03:44:20;;;;;;;10.67;7.43;;;8.10;99.90;;;;;;4961688;29;20222;-83
2022/05/02 03:46:47;;;;;;;10.07;7.43;;;8.10;99.90;;;;;;4961942;29;20228;-83
2022/05/02 03:49:14;;;;;;;10.53;7.07;;;8.10;99.90;;;;;;4962101;29;20301;-83
2022/05/02 03:51:41;;;;;;;10.60;6.90;;;8.00;99.90;;;;;;4962195;28;20293;-83
2022/05/02 03:54:09;;;;;;;8.77;7.07;;;8.00;99.90;;;;;;4962226;29;20208;-82
2022/05/02 03:56:36;;;;;;;9.27;7.17;;;8.10;99.90;;;;;;4962421;29;20748;-83
2022/05/02 03:59:03;;;;;;;9.30;7.07;;;8.20;99.90;;;;;;4962531;29;20210;-84
2022/05/02 04:01:31;;;;;;;11.33;7.10;;;8.20;99.90;;;;;;4962797;28;20228;-83
2022/05/02 04:03:58;;;;;;;11.33;7.60;;;8.30;99.90;;;;;;4963008;29;20206;-84
2022/05/02 04:06:25;;;;;;;12.10;7.97;;;8.40;99.90;;;;;;4962494;29;20293;-83
2022/05/02 04:08:52;;;;;;;10.77;7.43;;;8.50;99.90;;;;;;4960602;29;20213;-84
2022/05/02 04:11:20;;;;;;;10.13;7.60;;;8.50;99.90;;;;;;4962928;28;20735;-83
2022/05/02 04:13:47;;;;;;;10.87;7.40;;;8.40;99.90;;;;;;4961171;28;20708;-83
2022/05/02 04:16:14;;;;;;;10.70;8.03;;;8.30;99.90;;;;;;4961844;29;20313;-82
2022/05/02 04:18:41;;;;;;;8.40;6.60;;;8.20;99.90;;;;;;4961293;28;20213;-83
2022/05/02 04:21:08;;;;;;;10.97;7.17;;;8.10;99.90;;;;;;4960570;29;20214;-82
2022/05/02 04:23:35;;;;;;;15.03;7.10;;;8.10;99.90;;;;;;4961328;29;20289;-83
2022/05/02 04:26:02;;;;;;;8.17;6.27;;;7.90;99.90;;;;;;4961617;29;20712;-83
2022/05/02 04:28:30;;;;;;;9.57;6.60;;;7.90;99.90;;;;;;4961527;28;20309;-84
2022/05/02 04:30:57;;;;;;;11.33;6.57;;;8.00;99.90;;;;;;4960978;28;20212;-83
2022/05/02 04:33:24;;;;;;;9.73;6.00;;;8.20;99.90;;;;;;4961998;28;20682;-83
2022/05/02 04:35:51;;;;;;;9.13;6.60;;;8.30;99.90;;;;;;4961632;29;20230;-83
2022/05/02 04:38:18;;;;;;;8.83;6.43;;;8.20;99.90;;;;;;4961966;28;20285;-83
2022/05/02 04:40:45;;;;;;;9.20;6.40;;;8.30;99.90;;;;;;4962543;29;20206;-83
2022/05/02 04:43:13;;;;;;;9.80;7.23;;;8.30;99.90;;;;;;4962764;29;20206;-84
2022/05/02 04:45:42;;;;;;;10.83;7.50;;;8.30;99.90;;;;;;4963729;28;20237;-82
2022/05/02 04:48:10;;;;;;;9.70;6.67;;;8.20;11.70;;;;;;4968642;28;20287;-83
2022/05/02 04:50:37;;;;;;;9.63;7.73;;;8.40;1.00;;;;;;4966248;28;20214;-84
2022/05/02 04:53:04;;;;;;;10.60;8.07;;;8.40;1.00;;;;;;4965624;29;20205;-83
2022/05/02 04:55:31;;;;;;;9.37;7.53;;;8.30;1.00;;;;;;4964623;28;20751;-83
2022/05/02 04:57:57;;;;;;;12.00;7.73;;;8.10;1.00;;;;;;4965689;29;20266;-82
2022/05/02 05:00:25;;;;;;;11.37;8.40;;;8.00;1.00;;;;;;4964209;29;20226;-84
2022/05/02 05:02:53;;;;;;;9.07;7.63;;;8.20;1.00;;;;;;4964069;28;20745;-82
2022/05/02 05:05:20;;;;;;;9.97;7.23;;;8.30;1.00;;;;;;4964036;28;20316;-82
2022/05/02 05:07:47;;;;;;;10.90;7.47;;;8.20;1.00;;;;;;4963161;28;20232;-84
2022/05/02 05:10:16;;;;;;;10.43;7.80;;;8.40;1.00;;;;;;4961920;28;20206;-84
2022/05/02 05:12:59;;;;;;;10.33;7.70;;;8.50;1.00;;;;;;4961473;29;20936;-83
2022/05/02 05:18:49;;;;;;;13.63;9.07;;;8.80;1.00;;;;;;4963880;28;20281;-84
2022/05/02 05:21:29;;;;;;;11.93;7.53;;;9.00;1.00;;;;;;4967364;28;20244;-84
2022/05/02 05:24:21;;;;;;;10.23;7.53;;;8.90;1.00;;;;;;4967635;28;20258;-83
2022/05/02 05:26:57;;;;;;;10.77;6.60;;;8.90;99.90;;;;;;4967209;28;20515;-83
2022/05/02 05:29:36;;;;;;;11.53;7.10;;;9.20;23.50;;;;;;4967310;28;20206;-84
2022/05/02 05:32:14;;;;;;;10.23;6.67;;;9.20;1.00;;;;;;4967147;28;20206;-84
2022/05/02 05:34:51;;;;;;;8.30;6.83;;;8.90;1.00;;;;;;4967384;29;20245;-83
2022/05/02 05:37:46;;;;;;;10.50;6.77;;;8.90;99.90;;;;;;4968983;29;20285;-84
2022/05/02 05:40:20;;;;;;;10.77;6.83;;;9.00;99.90;;;;;;4968133;28;20261;-83
2022/05/02 05:42:57;;;;;;;9.83;7.23;;;9.10;99.90;;;;;;4968325;28;20218;-82
2022/05/02 05:45:37;;;;;;;10.70;7.00;;;9.10;12.60;;;;;;4965019;28;20316;-83
2022/05/02 05:48:13;;;;;;;11.37;7.00;;;9.10;18.70;;;;;;4964676;28;20297;-83
2022/05/02 05:50:49;;;;;;;13.83;7.73;;;8.90;99.90;;;;;;4964708;29;20576;-82
2022/05/02 05:53:29;;;;;;;10.80;7.67;;;8.90;99.90;;;;;;4965620;29;20206;-83
2022/05/02 05:56:08;;;;;;;12.57;7.57;;;9.00;1.00;;;;;;4965021;28;20293;-83
2022/05/02 05:58:47;;;;;;;11.33;7.20;;;9.00;1.00;;;;;;4961088;28;20220;-83
2022/05/02 06:01:20;;;;;;;14.40;7.73;;;9.00;1.00;;;;;;4962003;29;20214;-82
2022/05/02 06:04:02;;;;;;;9.57;7.20;;;9.20;99.90;;;;;;4962633;29;20242;-83
2022/05/02 06:06:31;;;;;;;11.00;7.63;;;9.20;1.00;;;;;;4962291;29;20216;-83
2022/05/02 06:08:59;;;;;;;9.37;6.93;;;9.20;99.90;;;;;;4962140;28;20222;-83
2022/05/02 06:11:26;;;;;;;10.30;7.20;;;9.20;1.00;;;;;;4962717;29;20210;-83
2022/05/02 06:13:54;;;;;;;9.80;7.70;;;9.40;99.90;;;;;;4963107;28;20218;-83
2022/05/02 06:19:10;;;;;;;9.60;6.87;;;9.80;1.00;;;;;;4962906;29;20262;-83
2022/05/02 06:21:41;;;;;;;9.50;6.67;;;9.80;1.00;;;;;;4962831;29;20226;-85
2022/05/02 06:24:12;;;;;;;11.47;6.90;;;9.80;99.90;;;;;;4962779;29;20198;-83
2022/05/02 06:26:40;;;;;;;11.87;7.50;;;9.90;99.90;;;;;;4962090;29;20238;-86
2022/05/02 06:29:09;;;;;;;8.40;6.90;;;10.00;23.80;;;;;;4961159;28;20226;-84
2022/05/02 06:31:37;;;;;;;9.80;6.90;;;10.00;1.00;;;;;;4963226;28;20224;-85
2022/05/02 06:34:06;;;;;;;8.43;6.27;;;9.90;1.00;;;;;;4962782;29;20285;-83
2022/05/02 06:37:04;;;;;;;14.63;6.43;;;9.60;1.00;;;;;;4963326;29;20213;-83
2022/05/02 06:39:46;;;;;;;10.93;6.80;;;9.90;1.00;;;;;;4930474;28;20210;-84
2022/05/02 06:42:22;;;;;;;9.10;6.67;;;10.00;1.00;;;;;;4963297;29;20387;-84
2022/05/02 06:45:01;;;;;;;9.90;6.70;;;10.00;1.00;;;;;;4965409;29;20276;-85
2022/05/02 06:47:37;;;;;;;9.00;6.50;;;10.10;1.00;;;;;;4964176;29;20210;-83
2022/05/02 06:50:07;;;;;;;11.03;6.40;;;9.90;1.00;;;;;;4964014;29;20269;-83
2022/05/02 06:52:44;;;;;;;10.83;7.20;;;9.90;1.00;;;;;;4963138;29;20218;-85
2022/05/02 06:55:21;;;;;;;13.10;7.33;;;9.80;14.30;;;;;;4963586;29;20256;-84
2022/05/02 06:58:01;;;;;;;15.77;6.70;;;9.90;99.90;;;;;;4963926;29;20285;-83
2022/05/02 07:00:35;;;;;;;24.20;7.83;;;10.10;1.00;;;;;;4963429;29;20296;-83
2022/05/02 07:03:25;;;;;;;23.47;8.50;;;10.10;1.00;;;;;;4964274;29;20783;-83
2022/05/02 07:06:05;;;;;;;23.17;7.37;;;10.10;99.90;;;;;;4952894;29;20231;-83
2022/05/02 07:08:43;;;;;;;25.27;8.17;;;9.90;99.90;;;;;;4963128;28;20266;-83
2022/05/02 07:11:19;;;;;;;18.40;7.80;;;10.20;1.00;;;;;;4963555;29;20217;-83
2022/05/02 07:14:00;;;;;;;14.07;7.27;;;10.20;99.90;;;;;;4963072;29;20289;-82
2022/05/02 07:16:30;;;;;;;18.23;7.53;;;10.30;37.00;;;;;;4964161;29;20217;-82
2022/05/02 07:19:21;;;;;;;11.50;7.43;;;10.40;99.90;;;;;;4963074;29;20229;-83
2022/05/02 07:21:55;;;;;;;12.20;7.07;;;10.40;99.90;;;;;;4963065;29;20584;-83
2022/05/02 07:24:42;;;;;;;12.67;7.23;;;10.30;1.00;;;;;;4962946;29;20233;-84
2022/05/02 07:27:21;;;;;;;11.27;7.13;;;10.50;1.00;;;;;;4962769;29;20297;-82
2022/05/02 07:29:50;;;;;;;10.50;7.70;;;10.40;1.00;;;;;;4962473;29;20317;-83
2022/05/02 07:32:18;;;;;;;11.33;7.63;;;10.60;99.90;;;;;;4963052;28;20712;-83
2022/05/02 07:34:49;;;;;;;10.73;8.13;;;10.60;1.00;;;;;;4962388;28;20234;-84
2022/05/02 07:37:20;;;;;;;12.47;7.77;;;10.80;1.00;;;;;;4962836;29;20241;-83
2022/05/02 07:39:49;;;;;;;12.50;8.37;;;10.80;1.00;;;;;;4963118;29;20293;-83
2022/05/02 07:42:18;;;;;;;11.63;8.00;;;10.70;1.00;;;;;;4962677;28;20220;-82
2022/05/02 07:44:47;;;;;;;13.80;8.53;;;10.80;1.00;;;;;;4962599;28;20223;-83
2022/05/02 07:47:16;;;;;;;14.83;8.30;;;11.00;99.90;;;;;;4963929;28;20259;-83
2022/05/02 07:49:47;;;;;;;12.97;8.00;;;10.90;1.00;;;;;;4961826;28;20240;-83
2022/05/02 07:52:17;;;;;;;12.37;8.20;;;11.10;99.90;;;;;;4962705;29;20206;-85
2022/05/02 07:54:47;;;;;;;12.67;8.47;;;11.40;1.00;;;;;;4961866;29;20261;-83
2022/05/02 07:57:18;;;;;;;13.23;8.13;;;11.30;93.40;;;;;;4962370;29;20220;-84
2022/05/02 07:59:47;;;;;;;13.97;8.80;;;11.40;1.00;;;;;;4961588;29;20225;-83
2022/05/02 08:02:16;;;;;;;10.33;8.50;;;11.50;1.00;;;;;;4961730;29;20694;-83
2022/05/02 08:04:44;;;;;;;12.13;8.43;;;11.70;1.00;;;;;;4961207;28;20289;-83
2022/05/02 08:07:15;;;;;;;12.20;8.40;;;11.80;99.90;;;;;;4962500;29;20220;-83
2022/05/02 08:10:32;;;;;;;15.17;8.53;;;11.70;1.00;;;;;;4962011;29;20230;-83
2022/05/02 08:13:05;;;;;;;12.73;8.60;;;12.10;1.00;;;;;;4961233;29;20241;-84
2022/05/02 08:15:39;;;;;;;13.73;9.10;;;12.10;1.00;;;;;;4959979;29;20226;-84
2022/05/02 08:18:28;;;;;;;15.27;8.83;;;12.10;1.00;;;;;;4959564;29;20212;-84
2022/05/02 08:20:56;;;;;;;12.97;9.03;;;12.20;99.90;;;;;;4959443;28;20270;-83
2022/05/02 08:29:39;;;;;;;12.73;8.40;;;12.60;1.00;;;;;;4958402;29;20747;-83
2022/05/02 08:32:10;;;;;;;16.57;8.57;;;12.70;1.00;;;;;;4958408;29;20719;-83
2022/05/02 08:34:45;;;;;;;13.30;8.03;;;12.80;1.00;;;;;;4957487;29;20343;-83
2022/05/02 08:37:32;;;;;;;15.47;8.30;;;12.90;83.30;;;;;;4956851;29;20197;-83
2022/05/02 08:40:09;;;;;;;13.27;8.40;;;13.10;1.00;;;;;;4955864;29;20284;-84
2022/05/02 08:43:12;;;;;;;16.53;8.70;;;13.20;1.00;;;;;;4955644;29;20221;-85
2022/05/02 08:46:29;;;;;;;17.00;9.50;;;13.20;1.00;;;;;;4958234;29;20316;-83
2022/05/02 08:49:36;;;;;;;14.30;8.63;;;13.80;64.20;;;;;;4883858;29;20259;-83
2022/05/02 08:52:39;;;;;;;13.83;8.53;;;13.90;67.10;;;;;;4961317;29;20226;-84
2022/05/02 08:55:22;;;;;;;10.87;7.63;;;13.90;99.90;;;;;;4961983;29;20236;-83
2022/05/02 08:58:20;;;;;;;13.37;9.23;;;13.80;99.90;;;;;;4962308;29;20221;-83
2022/05/02 09:01:04;;;;;;;11.90;8.63;;;13.90;99.90;;;;;;4961102;29;20715;-83
2022/05/02 09:04:19;;;;;;;12.50;8.23;;;14.10;99.90;;;;;;4961709;29;20280;-83
2022/05/02 09:07:22;;;;;;;12.77;8.70;;;14.10;98.30;;;;;;4854252;29;20339;-83
2022/05/02 09:10:06;;;;;;;14.43;8.33;;;14.30;99.90;;;;;;4879929;29;20231;-83
2022/05/02 09:13:23;;;;;;;14.53;8.70;;;14.40;97.70;;;;;;4954702;29;20244;-84
2022/05/02 09:16:31;;;;;;;17.27;9.50;;;14.50;97.90;;;;;;4962179;29;20305;-85
2022/05/02 09:19:37;;;;;;;12.50;9.03;;;14.40;95.80;;;;;;4961591;29;20206;-83
2022/05/02 09:22:42;;;;;;;14.30;8.47;;;14.60;93.20;;;;;;4962350;29;20652;-84
2022/05/02 09:25:10;;;;;;;12.33;8.10;;;14.80;93.10;;;;;;4946632;29;20301;-83
2022/05/02 09:27:49;;;;;;;11.10;8.10;;;15.10;90.60;;;;;;4961933;28;20211;-84
2022/05/02 09:30:40;;;;;;;13.53;8.23;;;15.10;84.60;;;;;;4962224;29;20254;-83
2022/05/02 09:33:32;;;;;;;12.93;7.87;;;15.30;84.60;;;;;;4964341;28;20211;-84
2022/05/02 09:36:15;;;;;;;11.70;7.87;;;15.10;83.10;;;;;;4964076;28;20242;-84
2022/05/02 09:38:54;;;;;;;14.80;7.70;;;15.20;80.70;;;;;;4964526;29;20592;-83
2022/05/02 09:41:47;;;;;;;14.30;8.73;;;15.30;73.60;;;;;;4965797;29;20265;-83
2022/05/02 09:50:32;;;;;;;11.97;7.27;;;15.70;66.70;;;;;;4945653;29;20226;-83
2022/05/02 09:53:05;;;;;;;12.17;7.40;;;16.50;60.20;;;;;;4960224;29;20206;-83
2022/05/02 09:58:37;;;;;;;8.60;6.72;;;16.40;59.60;;;;;;4964603;29;20197;-84
2022/05/02 10:01:10;;;;;;;11.27;6.93;;;16.50;53.10;;;;;;4963018;29;20220;-83
2022/05/02 10:03:40;;;;;;;8.90;6.25;;;16.40;51.60;;;;;;4963441;29;20214;-84
2022/05/02 10:06:10;;;;;;;7.82;5.95;;;16.50;58.00;;;;;;4963745;29;20648;-83
2022/05/02 10:08:49;;;;;;;11.82;7.03;;;16.70;52.20;;;;;;4961754;29;20269;-86
2022/05/02 10:11:50;;;;;;;9.43;5.95;;;17.20;49.20;;;;;;4964798;29;20620;-83
2022/05/02 10:14:49;;;;;;;9.70;6.43;;;17.20;42.10;;;;;;4966762;29;20361;-83
2022/05/02 10:17:28;;;;;;;10.40;6.40;;;17.30;43.40;;;;;;4928467;28;20290;-83
2022/05/02 10:20:08;;;;;;;10.35;6.38;;;16.70;40.70;;;;;;4961384;29;20210;-83
2022/05/02 10:22:50;;;;;;;7.68;6.18;;;16.80;46.70;;;;;;4961867;29;20244;-84
2022/05/02 10:25:21;;;;;;;9.75;6.43;;;17.20;39.00;;;;;;4963427;29;20254;-83
2022/05/02 10:28:08;;;;;;;12.40;6.38;;;17.30;42.10;;;;;;4961205;29;20642;-83
2022/05/02 10:30:47;;;;;;;10.82;6.63;;;17.20;39.40;;;;;;4961041;29;20726;-83
2022/05/02 10:33:16;;;;;;;9.40;6.82;;;17.10;34.90;;;;;;4964437;29;20313;-85
2022/05/02 10:35:47;;;;;;;11.05;6.20;;;17.10;34.80;;;;;;4961081;28;20315;-83
2022/05/02 10:38:20;;;;;;;10.15;6.45;;;17.40;30.30;;;;;;4965484;29;20240;-84
2022/05/02 10:40:51;;;;;;;9.52;6.10;;;17.70;28.30;;;;;;4963660;29;20213;-85
2022/05/02 10:43:25;;;;;;;9.50;5.93;;;18.00;27.30;;;;;;4964028;28;20214;-84
2022/05/02 10:45:52;;;;;;;7.68;6.43;;;17.70;26.20;;;;;;4967435;29;20230;-85
2022/05/02 10:48:31;;;;;;;10.38;6.88;;;17.60;25.80;;;;;;4961219;29;20643;-85
2022/05/02 10:51:06;;;;;;;9.65;6.93;;;17.60;24.90;;;;;;4963753;29;20214;-84
2022/05/02 10:53:58;;;;;;;13.02;7.75;;;17.80;23.10;;;;;;4962021;29;20210;-84
2022/05/02 10:56:33;;;;;;;13.35;6.97;;;17.80;29.60;;;;;;4968336;29;20210;-84
2022/05/02 10:59:03;;;;;;;8.98;6.53;;;18.00;26.70;;;;;;4964305;29;20213;-83
2022/05/02 11:02:06;;;;;;;9.73;7.72;;;18.10;26.10;;;;;;4965331;29;20210;-85
2022/05/02 11:05:01;;;;;;;9.43;7.47;;;18.30;28.00;;;;;;4964172;29;20230;-85
2022/05/02 11:07:31;;;;;;;12.88;7.43;;;18.10;26.50;;;;;;4950784;29;20217;-83
2022/05/02 11:10:05;;;;;;;9.68;6.07;;;18.20;29.40;;;;;;4964063;28;20230;-82
2022/05/02 11:12:38;;;;;;;11.45;7.85;;;18.20;30.50;;;;;;4962745;29;20237;-83
2022/05/02 11:15:07;;;;;;;10.60;6.78;;;17.90;26.60;;;;;;4962808;29;20289;-81
2022/05/02 11:17:48;;;;;;;9.15;6.97;;;18.50;28.70;;;;;;4960146;29;20210;-81
2022/05/02 11:23:32;;;;;;;8.27;6.30;;;18.70;25.70;;;;;;4942609;29;20194;-83
2022/05/02 11:26:13;;;;;;;11.20;6.75;;;18.50;25.60;;;;;;4960431;29;20254;-83
2022/05/02 11:28:55;;;;;;;11.43;7.53;;;18.50;25.20;;;;;;4960276;29;20736;-81
2022/05/02 11:31:26;;;;;;;11.52;6.97;;;18.60;26.00;;;;;;4961329;29;20194;-83
2022/05/02 11:34:03;;;;;;;11.10;7.10;;;18.60;27.00;;;;;;4963331;29;20277;-83
2022/05/02 11:36:34;;;;;;;11.38;7.05;;;17.90;26.50;;;;;;4960846;29;20209;-83
2022/05/02 11:39:05;;;;;;;9.52;6.75;;;18.10;26.00;;;;;;4960295;29;20265;-83
2022/05/02 11:41:33;;;;;;;10.85;6.63;;;18.40;24.60;;;;;;4960905;29;20230;-84
2022/05/02 11:44:10;;;;;;;11.63;7.03;;;18.60;25.50;;;;;;4959941;29;20305;-83
2022/05/02 11:46:54;;;;;;;11.27;7.25;;;18.80;24.50;;;;;;4960685;29;20720;-83
2022/05/02 11:49:38;;;;;;;12.27;7.68;;;18.80;25.50;;;;;;4958307;29;20218;-83
2022/05/02 11:52:09;;;;;;;12.18;7.13;;;18.50;26.80;;;;;;4958659;29;20735;-84
2022/05/02 11:54:39;;;;;;;11.48;7.38;;;18.70;26.00;;;;;;4959851;28;20649;-83
2022/05/02 11:57:22;;;;;;;10.95;7.43;;;19.20;24.30;;;;;;4958936;29;20301;-83
2022/05/02 11:59:57;;;;;;;12.05;7.00;;;18.70;25.00;;;;;;4960690;29;20639;-83
2022/05/02 12:02:39;;;;;;;11.10;7.00;;;18.90;25.00;;;;;;4958598;29;20214;-83
2022/05/02 12:05:20;;;;;;;10.45;7.55;;;18.40;23.80;;;;;;4958321;29;20274;-82
2022/05/02 12:07:52;;;;;;;9.27;7.15;;;18.80;23.70;;;;;;4957128;29;20253;-84
2022/05/02 12:10:20;;;;;;;13.07;7.55;;;18.90;23.10;;;;;;4956512;29;20578;-83
2022/05/02 12:12:50;;;;;;;10.52;7.35;;;18.90;24.70;;;;;;4967746;29;20206;-84
2022/05/02 12:15:18;;;;;;;8.30;6.40;;;19.00;25.80;;;;;;4960821;28;20227;-83
2022/05/02 12:17:55;;;;;;;11.63;7.43;;;19.10;21.90;;;;;;4966873;29;20297;-83
2022/05/02 12:20:27;;;;;;;13.73;6.53;;;19.00;18.90;;;;;;4967685;28;20202;-84
2022/05/02 12:22:57;;;;;;;10.52;6.97;;;19.70;18.30;;;;;;4968519;29;20296;-84
2022/05/02 12:25:28;;;;;;;11.32;7.35;;;19.70;17.50;;;;;;4963318;29;20647;-83
2022/05/02 12:27:57;;;;;;;10.25;6.93;;;19.40;17.70;;;;;;4966166;29;20210;-83
2022/05/02 12:30:27;;;;;;;11.30;6.95;;;19.20;16.90;;;;;;4964460;28;20305;-83
2022/05/02 12:32:59;;;;;;;9.65;7.25;;;19.50;17.30;;;;;;4967626;29;20234;-83
2022/05/02 12:35:34;;;;;;;9.68;6.65;;;20.40;15.60;;;;;;4968562;29;20667;-84
2022/05/02 12:38:11;;;;;;;9.95;6.35;;;20.60;12.60;;;;;;4965847;29;20198;-83
2022/05/02 12:40:40;;;;;;;11.18;7.13;;;19.60;16.10;;;;;;4966161;29;20205;-84
2022/05/02 12:43:11;;;;;;;8.95;6.68;;;19.50;17.10;;;;;;4967388;28;20297;-84
2022/05/02 12:45:46;;;;;;;10.07;6.57;;;19.50;16.40;;;;;;4968751;29;20269;-84
2022/05/02 12:48:22;;;;;;;12.48;7.30;;;19.50;16.60;;;;;;4970116;29;20212;-84
2022/05/02 12:50:51;;;;;;;10.35;7.00;;;19.40;16.00;;;;;;4964070;29;20230;-82
2022/05/02 12:56:05;;;;;;;11.07;7.20;;;19.10;15.10;;;;;;4966298;29;20237;-85
2022/05/02 13:01:21;;;;;;;10.55;6.68;;;19.60;14.10;;;;;;4971503;29;20217;-83
2022/05/02 13:03:55;;;;;;;9.52;7.15;;;19.80;17.30;;;;;;4968305;29;20206;-83
2022/05/02 13:06:23;;;;;;;10.93;6.63;;;19.50;14.70;;;;;;4968790;28;20237;-83
2022/05/02 13:08:50;;;;;;;11.95;6.80;;;20.20;16.00;;;;;;4971352;28;20266;-84
2022/05/02 13:11:21;;;;;;;11.48;6.85;;;20.30;13.80;;;;;;4971211;28;20290;-84
2022/05/02 13:13:52;;;;;;;12.00;7.30;;;20.30;14.70;;;;;;4967399;29;20241;-82
2022/05/02 13:16:27;;;;;;;10.45;7.05;;;19.60;18.10;;;;;;4969088;29;20281;-85
2022/05/02 13:18:55;;;;;;;10.40;6.93;;;19.40;17.90;;;;;;4972903;29;20201;-84
2022/05/02 13:21:22;;;;;;;11.50;7.43;;;19.50;16.30;;;;;;4967858;28;20623;-84
2022/05/02 13:23:51;;;;;;;10.32;7.18;;;19.50;17.40;;;;;;4968170;28;20717;-83
2022/05/02 13:27:05;;;;;;;11.85;7.45;;;19.00;17.70;;;;;;4968929;28;20265;-83
2022/05/02 13:29:56;;;;;;;10.98;6.90;;;19.20;19.50;;;;;;4935100;28;20298;-83
2022/05/02 13:32:25;;;;;;;12.20;8.02;;;18.90;20.70;;;;;;4967948;29;20298;-83
2022/05/02 13:35:09;;;;;;;11.68;7.38;;;18.90;18.20;;;;;;4971927;29;20226;-84
2022/05/02 13:37:50;;;;;;;10.85;6.82;;;19.10;16.40;;;;;;4972185;29;20647;-83
2022/05/02 13:40:20;;;;;;;12.13;7.38;;;19.30;16.60;;;;;;4970579;29;20635;-84
2022/05/02 13:42:57;;;;;;;12.25;7.50;;;19.70;19.20;;;;;;4971576;28;20266;-84
2022/05/02 13:45:35;;;;;;;11.80;7.43;;;19.60;15.60;;;;;;4972133;29;20237;-84
2022/05/02 13:48:23;;;;;;;10.52;7.18;;;19.80;15.60;;;;;;4970641;29;20206;-83
2022/05/02 13:50:57;;;;;;;10.85;7.60;;;20.50;13.30;;;;;;4967525;29;20264;-83
2022/05/02 13:53:35;;;;;;;10.02;7.25;;;19.80;14.50;;;;;;4971361;29;20626;-84
2022/05/02 13:56:08;;;;;;;10.40;7.28;;;19.60;13.80;;;;;;4969479;29;20712;-84
2022/05/02 13:59:00;;;;;;;9.98;7.35;;;19.50;15.20;;;;;;4969890;29;20206;-83